Summit Argo, IL (60501)

09:26 AM CST del 30 Gennaio 2015 (GMT -0600)
Garfield Ridge | Change Station
CLOSE
Current Station
Stazione meteo personale
Location: Chicago, IL
Altitudine: 604 ft
Stazioni meteo nelle vicinanze
Avvisi attivi: Special Statement

Alt. 604 ft 41.78 °N, 87.79 °W | Updated 4 seconds ago

Sereno
Sereno
30.2 °F
Sembra 30 °F
N
2.2
Vento Variabile Vento da Nord
Gusts 8.3 mph

Oggi
Massima -- | Minima -- °F
--% Possibilità di precip.
Ieri
Massima -- | Minima -- °F
Precip. -- in
7:05 AM 5:03 PM
Gobba a ponente, 83% visible
Pressione 30.55 in
Visibilità 10.0 miglia
Nuvole Alcuni 3000 ft
Raffreddamento del vento 30 °F
Punto di rugiada 13 °F
Umidità 49%
Piovosità 0.00 in
Spessore del manto nevoso Non disponibile.
Raggi UV 1 fuori da 12
Polline .10 fuori da 12
Qualità dell'aria Non disponibile.
Flu Activity Non disponibile.
METAR KMDW 301453Z 32008KT 10SM FEW030 M04/M12 A3051 RMK AO2 SLP345 T10391122 51015

More Conditions Fewer Conditions

Pressione 30.55 in
Visibilità 10.0 miglia
Nuvole Alcuni 3000 ft
Raffreddamento del vento 30 °F
Punto di rugiada 13 °F
Umidità 49%
Piovosità 0.00 in
Spessore del manto nevoso Non disponibile.
Raggi UV 1 fuori da 12
Polline .10 fuori da 12
Qualità dell'aria Non disponibile.
Flu Activity Non disponibile.
METAR KMDW 301453Z 32008KT 10SM FEW030 M04/M12 A3051 RMK AO2 SLP345 T10391122 51015

More Conditions Fewer Conditions

10-Day Weather Forecast

Almanac

Astronomia

Jan. 30, 2015 Alba Tramonto
Ora attuale
Crepuscolo civile
Crepuscolo nautico
Crepuscolo astronomico
Luna
Estensione della luce visibile
Lunghezza del giorno
Tomorrow will be .
, % of the Moon is Illuminated

Gli estremi di oggi

State Highs State Lows

Community

WunderPhotos

Upload Photos

1,791,787 foto caricate!

WunderBlogs® & News

Nearby

Qualità dell'aria

  Qualità dell'aria Indice AQ Inquinante
Not available.

Profondità neve

Stazione Profondità Altitudine

Attività sismica

Città  Distanza Mag. Data & Ora
Minimo Magnitudo Mostrato è 2.5.

Temperature delle acque costiere

Località Temperatura

Stazioni meteo nelle vicinanze